This is the latest recevied weather packets stored in our database for station/object OM8AKX-4. If no packets are shown the sender has not sent any weather packets the latest 10 day(s).
| Time | Temp. | Humidity | Pressure | Rain* | Wind** | Luminosity | Snow |
|---|---|---|---|---|---|---|---|
| 1777717620 | 8.33° C | 61% | 883.3 hPa | - | - | - | - |
| 1777716720 | 7.78° C | 60% | 883.3 hPa | - | - | - | - |
| 1777715820 | 7.78° C | 60% | 883.4 hPa | - | - | - | - |
| 1777714920 | 7.78° C | 59% | 883.4 hPa | - | - | - | - |
| 1777714020 | 7.22° C | 61% | 883.4 hPa | - | - | - | - |
| 1777713120 | 7.22° C | 61% | 883.4 hPa | - | - | - | - |
| 1777712220 | 7.22° C | 61% | 883.3 hPa | - | - | - | - |
| 1777711318 | 7.22° C | 61% | 883.5 hPa | - | - | - | - |
| 1777710418 | 6.67° C | 60% | 883.5 hPa | - | - | - | - |
| 1777709519 | 6.67° C | 61% | 883.3 hPa | - | - | - | - |
| 1777708618 | 6.67° C | 62% | 883.5 hPa | - | - | - | - |
| 1777707718 | 6.67° C | 63% | 883.6 hPa | - | - | - | - |
| 1777706818 | 6.11° C | 64% | 883.4 hPa | - | - | - | - |
| 1777705920 | 6.11° C | 66% | 883.4 hPa | - | - | - | - |
| 1777705020 | 6.11° C | 66% | 883.5 hPa | - | - | - | - |
| 1777704120 | 6.11° C | 67% | 883.4 hPa | - | - | - | - |
| 1777703220 | 6.11° C | 70% | 883.3 hPa | - | - | - | - |
| 1777702320 | 6.67° C | 68% | 883.2 hPa | - | - | - | - |
| 1777701420 | 7.22° C | 68% | 883.3 hPa | - | - | - | - |
| 1777700520 | 8.33° C | 61% | 883.3 hPa | - | - | - | - |
| 1777699619 | 10° C | 59% | 883.1 hPa | - | - | - | - |
| 1777698719 | 9.44° C | 59% | 883.1 hPa | - | - | - | - |
| 1777697819 | 9.44° C | 60% | 883 hPa | - | - | - | - |
| 1777696919 | 8.89° C | 63% | 882.9 hPa | - | - | - | - |
| 1777696019 | 8.33° C | 65% | 882.8 hPa | - | - | - | - |
* Rain since midnight (hover to see other rain measurements)
** Current wind speed in m/s (hover to see current wind gust speed)